sensor_id;sensor_type;location;lat;lon;timestamp;P1;durP1;ratioP1;P2;durP2;ratioP2
29712;SDS011;16623;53.632;10.016;2022-11-15T00:00:26;50.72;;;26.60;;
29712;SDS011;16623;53.632;10.016;2022-11-15T00:02:52;53.80;;;29.10;;
29712;SDS011;16623;53.632;10.016;2022-11-15T00:05:18;54.00;;;30.10;;
29712;SDS011;16623;53.632;10.016;2022-11-15T00:07:43;47.53;;;26.17;;
29712;SDS011;16623;53.632;10.016;2022-11-15T00:10:09;49.92;;;28.58;;
29712;SDS011;16623;53.632;10.016;2022-11-15T00:12:34;49.88;;;29.13;;
29712;SDS011;16623;53.632;10.016;2022-11-15T00:15:00;52.83;;;27.92;;
29712;SDS011;16623;53.632;10.016;2022-11-15T00:17:26;52.72;;;28.95;;
29712;SDS011;16623;53.632;10.016;2022-11-15T00:19:51;50.85;;;29.42;;
29712;SDS011;16623;53.632;10.016;2022-11-15T00:22:17;49.95;;;28.17;;
29712;SDS011;16623;53.632;10.016;2022-11-15T00:24:42;51.40;;;27.38;;
29712;SDS011;16623;53.632;10.016;2022-11-15T00:27:08;50.10;;;28.30;;
29712;SDS011;16623;53.632;10.016;2022-11-15T00:29:33;53.03;;;29.38;;
29712;SDS011;16623;53.632;10.016;2022-11-15T00:31:59;51.80;;;28.05;;
29712;SDS011;16623;53.632;10.016;2022-11-15T00:34:25;53.10;;;28.42;;
29712;SDS011;16623;53.632;10.016;2022-11-15T00:36:50;53.55;;;27.27;;
29712;SDS011;16623;53.632;10.016;2022-11-15T00:39:16;53.95;;;28.50;;
29712;SDS011;16623;53.632;10.016;2022-11-15T00:41:41;47.22;;;27.95;;
29712;SDS011;16623;53.632;10.016;2022-11-15T00:44:07;51.15;;;27.92;;
29712;SDS011;16623;53.632;10.016;2022-11-15T00:46:32;49.28;;;27.10;;
29712;SDS011;16623;53.632;10.016;2022-11-15T00:48:58;55.33;;;28.85;;
29712;SDS011;16623;53.632;10.016;2022-11-15T00:51:23;52.85;;;28.80;;
29712;SDS011;16623;53.632;10.016;2022-11-15T00:53:49;49.50;;;28.77;;
29712;SDS011;16623;53.632;10.016;2022-11-15T00:56:14;50.60;;;26.52;;
29712;SDS011;16623;53.632;10.016;2022-11-15T00:58:40;47.45;;;28.67;;
29712;SDS011;16623;53.632;10.016;2022-11-15T01:01:10;49.83;;;27.90;;
29712;SDS011;16623;53.632;10.016;2022-11-15T01:03:38;51.50;;;27.85;;
29712;SDS011;16623;53.632;10.016;2022-11-15T01:06:05;48.55;;;26.75;;
29712;SDS011;16623;53.632;10.016;2022-11-15T01:08:31;49.88;;;27.38;;
29712;SDS011;16623;53.632;10.016;2022-11-15T01:11:01;47.60;;;26.50;;
29712;SDS011;16623;53.632;10.016;2022-11-15T01:13:32;52.30;;;27.20;;
29712;SDS011;16623;53.632;10.016;2022-11-15T01:16:05;47.33;;;26.60;;
29712;SDS011;16623;53.632;10.016;2022-11-15T01:18:31;45.85;;;26.63;;
29712;SDS011;16623;53.632;10.016;2022-11-15T01:20:56;46.20;;;27.40;;
29712;SDS011;16623;53.632;10.016;2022-11-15T01:23:22;50.00;;;27.48;;
29712;SDS011;16623;53.632;10.016;2022-11-15T01:25:47;43.85;;;26.90;;
29712;SDS011;16623;53.632;10.016;2022-11-15T01:28:13;41.22;;;25.27;;
29712;SDS011;16623;53.632;10.016;2022-11-15T01:30:38;47.90;;;26.35;;
29712;SDS011;16623;53.632;10.016;2022-11-15T01:33:04;45.83;;;25.17;;
29712;SDS011;16623;53.632;10.016;2022-11-15T01:35:29;45.45;;;26.67;;
29712;SDS011;16623;53.632;10.016;2022-11-15T01:37:55;42.42;;;25.23;;
29712;SDS011;16623;53.632;10.016;2022-11-15T01:40:20;46.63;;;26.15;;
29712;SDS011;16623;53.632;10.016;2022-11-15T01:42:46;46.83;;;25.73;;
29712;SDS011;16623;53.632;10.016;2022-11-15T01:45:15;44.55;;;25.88;;
29712;SDS011;16623;53.632;10.016;2022-11-15T01:47:42;41.35;;;24.33;;
29712;SDS011;16623;53.632;10.016;2022-11-15T01:50:14;45.60;;;26.05;;
29712;SDS011;16623;53.632;10.016;2022-11-15T01:52:43;42.70;;;24.58;;
29712;SDS011;16623;53.632;10.016;2022-11-15T01:55:17;41.78;;;25.02;;
29712;SDS011;16623;53.632;10.016;2022-11-15T01:57:46;47.95;;;25.58;;
29712;SDS011;16623;53.632;10.016;2022-11-15T02:00:14;46.65;;;25.73;;
29712;SDS011;16623;53.632;10.016;2022-11-15T02:02:40;43.58;;;25.30;;
29712;SDS011;16623;53.632;10.016;2022-11-15T02:05:06;43.22;;;26.08;;
29712;SDS011;16623;53.632;10.016;2022-11-15T02:07:32;41.50;;;24.73;;
29712;SDS011;16623;53.632;10.016;2022-11-15T02:10:03;43.03;;;25.58;;
29712;SDS011;16623;53.632;10.016;2022-11-15T02:12:35;42.22;;;25.58;;
29712;SDS011;16623;53.632;10.016;2022-11-15T02:15:01;40.95;;;24.70;;
29712;SDS011;16623;53.632;10.016;2022-11-15T02:17:47;46.85;;;26.05;;
29712;SDS011;16623;53.632;10.016;2022-11-15T02:20:41;41.00;;;22.67;;
29712;SDS011;16623;53.632;10.016;2022-11-15T02:23:21;41.88;;;25.05;;
29712;SDS011;16623;53.632;10.016;2022-11-15T02:31:55;44.65;;;24.45;;
29712;SDS011;16623;53.632;10.016;2022-11-15T02:37:31;43.42;;;23.88;;
29712;SDS011;16623;53.632;10.016;2022-11-15T02:42:35;41.65;;;24.77;;
29712;SDS011;16623;53.632;10.016;2022-11-15T02:45:27;42.78;;;24.30;;
29712;SDS011;16623;53.632;10.016;2022-11-15T02:47:57;39.88;;;24.20;;
29712;SDS011;16623;53.632;10.016;2022-11-15T02:50:27;38.88;;;22.13;;
29712;SDS011;16623;53.632;10.016;2022-11-15T02:52:54;43.47;;;24.92;;
29712;SDS011;16623;53.632;10.016;2022-11-15T02:55:30;43.78;;;23.30;;
29712;SDS011;16623;53.632;10.016;2022-11-15T03:00:31;44.88;;;22.58;;
29712;SDS011;16623;53.632;10.016;2022-11-15T03:03:08;37.10;;;23.00;;
29712;SDS011;16623;53.632;10.016;2022-11-15T03:05:57;40.15;;;23.27;;
29712;SDS011;16623;53.632;10.016;2022-11-15T03:08:44;40.63;;;22.75;;
29712;SDS011;16623;53.632;10.016;2022-11-15T03:11:29;35.72;;;22.38;;
29712;SDS011;16623;53.632;10.016;2022-11-15T03:13:58;42.13;;;23.17;;
29712;SDS011;16623;53.632;10.016;2022-11-15T03:16:34;41.83;;;22.67;;
29712;SDS011;16623;53.632;10.016;2022-11-15T03:21:38;38.80;;;21.67;;
29712;SDS011;16623;53.632;10.016;2022-11-15T03:24:05;39.80;;;21.40;;
29712;SDS011;16623;53.632;10.016;2022-11-15T03:26:33;37.03;;;21.42;;
29712;SDS011;16623;53.632;10.016;2022-11-15T03:29:17;38.70;;;23.42;;
29712;SDS011;16623;53.632;10.016;2022-11-15T03:31:48;35.22;;;21.67;;
29712;SDS011;16623;53.632;10.016;2022-11-15T03:34:22;36.25;;;22.52;;
29712;SDS011;16623;53.632;10.016;2022-11-15T03:36:55;36.70;;;22.35;;
29712;SDS011;16623;53.632;10.016;2022-11-15T03:39:20;35.15;;;21.27;;
29712;SDS011;16623;53.632;10.016;2022-11-15T03:45:02;35.85;;;22.38;;
29712;SDS011;16623;53.632;10.016;2022-11-15T03:47:40;34.75;;;21.27;;
29712;SDS011;16623;53.632;10.016;2022-11-15T03:50:13;38.50;;;21.80;;
29712;SDS011;16623;53.632;10.016;2022-11-15T03:52:43;36.50;;;21.75;;
29712;SDS011;16623;53.632;10.016;2022-11-15T03:55:13;42.22;;;22.08;;
29712;SDS011;16623;53.632;10.016;2022-11-15T03:57:41;35.55;;;21.70;;
29712;SDS011;16623;53.632;10.016;2022-11-15T04:00:07;37.30;;;21.90;;
29712;SDS011;16623;53.632;10.016;2022-11-15T04:02:33;37.35;;;22.17;;
29712;SDS011;16623;53.632;10.016;2022-11-15T04:04:59;34.33;;;22.13;;
29712;SDS011;16623;53.632;10.016;2022-11-15T04:07:24;36.80;;;21.88;;
29712;SDS011;16623;53.632;10.016;2022-11-15T04:09:50;34.85;;;21.92;;
29712;SDS011;16623;53.632;10.016;2022-11-15T04:14:58;38.40;;;22.33;;
29712;SDS011;16623;53.632;10.016;2022-11-15T04:17:35;34.75;;;21.35;;
29712;SDS011;16623;53.632;10.016;2022-11-15T04:20:03;34.83;;;20.27;;
29712;SDS011;16623;53.632;10.016;2022-11-15T04:22:51;36.88;;;19.88;;
29712;SDS011;16623;53.632;10.016;2022-11-15T04:25:36;38.58;;;21.20;;
29712;SDS011;16623;53.632;10.016;2022-11-15T04:28:02;35.13;;;21.75;;
29712;SDS011;16623;53.632;10.016;2022-11-15T04:30:28;34.95;;;22.13;;
29712;SDS011;16623;53.632;10.016;2022-11-15T04:32:53;35.33;;;20.60;;
29712;SDS011;16623;53.632;10.016;2022-11-15T04:35:19;35.13;;;20.75;;
29712;SDS011;16623;53.632;10.016;2022-11-15T04:37:44;38.58;;;21.77;;
29712;SDS011;16623;53.632;10.016;2022-11-15T04:40:10;36.15;;;22.20;;
29712;SDS011;16623;53.632;10.016;2022-11-15T04:42:36;34.28;;;20.48;;
29712;SDS011;16623;53.632;10.016;2022-11-15T04:45:01;39.08;;;21.67;;
29712;SDS011;16623;53.632;10.016;2022-11-15T04:47:27;41.90;;;22.20;;
29712;SDS011;16623;53.632;10.016;2022-11-15T04:49:54;35.58;;;20.77;;
29712;SDS011;16623;53.632;10.016;2022-11-15T04:52:20;32.70;;;21.02;;
29712;SDS011;16623;53.632;10.016;2022-11-15T04:54:45;36.05;;;21.55;;
29712;SDS011;16623;53.632;10.016;2022-11-15T04:57:11;35.78;;;21.27;;
29712;SDS011;16623;53.632;10.016;2022-11-15T04:59:36;37.25;;;21.63;;
29712;SDS011;16623;53.632;10.016;2022-11-15T05:02:02;39.17;;;23.08;;
29712;SDS011;16623;53.632;10.016;2022-11-15T05:04:27;39.90;;;21.42;;
29712;SDS011;16623;53.632;10.016;2022-11-15T05:06:53;35.78;;;21.85;;
29712;SDS011;16623;53.632;10.016;2022-11-15T05:09:19;35.65;;;21.73;;
29712;SDS011;16623;53.632;10.016;2022-11-15T05:11:45;35.88;;;21.63;;
29712;SDS011;16623;53.632;10.016;2022-11-15T05:14:12;39.65;;;23.05;;
29712;SDS011;16623;53.632;10.016;2022-11-15T05:16:38;38.95;;;21.48;;
29712;SDS011;16623;53.632;10.016;2022-11-15T05:19:07;37.40;;;21.90;;
29712;SDS011;16623;53.632;10.016;2022-11-15T05:21:33;33.33;;;19.52;;
29712;SDS011;16623;53.632;10.016;2022-11-15T05:23:59;35.10;;;21.17;;
29712;SDS011;16623;53.632;10.016;2022-11-15T05:26:25;36.38;;;21.85;;
29712;SDS011;16623;53.632;10.016;2022-11-15T05:28:52;35.35;;;21.65;;
29712;SDS011;16623;53.632;10.016;2022-11-15T05:31:22;37.47;;;21.90;;
29712;SDS011;16623;53.632;10.016;2022-11-15T05:33:48;35.60;;;21.52;;
29712;SDS011;16623;53.632;10.016;2022-11-15T05:36:21;35.53;;;21.25;;
29712;SDS011;16623;53.632;10.016;2022-11-15T05:38:53;36.03;;;20.83;;
29712;SDS011;16623;53.632;10.016;2022-11-15T05:41:20;37.45;;;21.40;;
29712;SDS011;16623;53.632;10.016;2022-11-15T05:43:51;37.13;;;21.15;;
29712;SDS011;16623;53.632;10.016;2022-11-15T05:46:18;35.15;;;21.60;;
29712;SDS011;16623;53.632;10.016;2022-11-15T05:48:48;37.70;;;20.45;;
29712;SDS011;16623;53.632;10.016;2022-11-15T05:51:15;35.90;;;21.63;;
29712;SDS011;16623;53.632;10.016;2022-11-15T05:53:43;40.90;;;23.08;;
29712;SDS011;16623;53.632;10.016;2022-11-15T05:56:10;35.72;;;20.80;;
29712;SDS011;16623;53.632;10.016;2022-11-15T05:58:36;43.03;;;21.13;;
29712;SDS011;16623;53.632;10.016;2022-11-15T06:01:02;40.67;;;22.48;;
29712;SDS011;16623;53.632;10.016;2022-11-15T06:03:28;35.13;;;21.05;;
29712;SDS011;16623;53.632;10.016;2022-11-15T06:05:53;32.75;;;20.48;;
29712;SDS011;16623;53.632;10.016;2022-11-15T06:08:19;38.75;;;20.73;;
29712;SDS011;16623;53.632;10.016;2022-11-15T06:10:45;33.08;;;20.77;;
29712;SDS011;16623;53.632;10.016;2022-11-15T06:13:10;34.78;;;20.73;;
29712;SDS011;16623;53.632;10.016;2022-11-15T06:15:36;35.40;;;20.27;;
29712;SDS011;16623;53.632;10.016;2022-11-15T06:18:01;33.30;;;20.35;;
29712;SDS011;16623;53.632;10.016;2022-11-15T06:20:27;35.90;;;20.00;;
29712;SDS011;16623;53.632;10.016;2022-11-15T06:23:01;31.83;;;19.45;;
29712;SDS011;16623;53.632;10.016;2022-11-15T06:25:37;32.53;;;19.80;;
29712;SDS011;16623;53.632;10.016;2022-11-15T06:30:28;34.90;;;18.95;;
29712;SDS011;16623;53.632;10.016;2022-11-15T06:33:03;36.58;;;19.25;;
29712;SDS011;16623;53.632;10.016;2022-11-15T06:35:30;31.35;;;18.92;;
29712;SDS011;16623;53.632;10.016;2022-11-15T06:38:05;32.38;;;18.58;;
29712;SDS011;16623;53.632;10.016;2022-11-15T06:40:33;32.67;;;19.23;;
29712;SDS011;16623;53.632;10.016;2022-11-15T06:43:03;32.85;;;20.75;;
29712;SDS011;16623;53.632;10.016;2022-11-15T06:45:29;33.45;;;19.92;;
29712;SDS011;16623;53.632;10.016;2022-11-15T06:47:55;32.53;;;18.38;;
29712;SDS011;16623;53.632;10.016;2022-11-15T06:50:21;29.95;;;17.73;;
29712;SDS011;16623;53.632;10.016;2022-11-15T06:52:47;31.35;;;18.80;;
29712;SDS011;16623;53.632;10.016;2022-11-15T06:55:12;29.02;;;18.30;;
29712;SDS011;16623;53.632;10.016;2022-11-15T06:57:45;32.63;;;18.27;;
29712;SDS011;16623;53.632;10.016;2022-11-15T07:00:18;30.65;;;17.92;;
29712;SDS011;16623;53.632;10.016;2022-11-15T07:02:45;28.58;;;19.30;;
29712;SDS011;16623;53.632;10.016;2022-11-15T07:05:11;32.67;;;18.85;;
29712;SDS011;16623;53.632;10.016;2022-11-15T07:07:37;30.42;;;18.27;;
29712;SDS011;16623;53.632;10.016;2022-11-15T07:10:03;31.35;;;19.52;;
29712;SDS011;16623;53.632;10.016;2022-11-15T07:12:29;35.75;;;19.70;;
29712;SDS011;16623;53.632;10.016;2022-11-15T07:14:55;35.22;;;18.90;;
29712;SDS011;16623;53.632;10.016;2022-11-15T07:17:21;30.50;;;19.38;;
29712;SDS011;16623;53.632;10.016;2022-11-15T07:19:46;33.03;;;19.13;;
29712;SDS011;16623;53.632;10.016;2022-11-15T07:22:12;34.67;;;19.67;;
29712;SDS011;16623;53.632;10.016;2022-11-15T07:24:37;29.27;;;18.75;;
29712;SDS011;16623;53.632;10.016;2022-11-15T07:27:03;33.03;;;20.38;;
29712;SDS011;16623;53.632;10.016;2022-11-15T07:29:28;31.48;;;18.98;;
29712;SDS011;16623;53.632;10.016;2022-11-15T07:31:54;34.00;;;19.25;;
29712;SDS011;16623;53.632;10.016;2022-11-15T07:34:19;31.13;;;19.48;;
29712;SDS011;16623;53.632;10.016;2022-11-15T07:36:45;33.47;;;19.25;;
29712;SDS011;16623;53.632;10.016;2022-11-15T07:39:10;28.20;;;18.35;;
29712;SDS011;16623;53.632;10.016;2022-11-15T07:41:37;33.33;;;18.73;;
29712;SDS011;16623;53.632;10.016;2022-11-15T07:44:04;35.25;;;19.20;;
29712;SDS011;16623;53.632;10.016;2022-11-15T07:46:29;36.20;;;19.17;;
29712;SDS011;16623;53.632;10.016;2022-11-15T07:48:56;36.08;;;18.85;;
29712;SDS011;16623;53.632;10.016;2022-11-15T07:51:21;30.15;;;18.95;;
29712;SDS011;16623;53.632;10.016;2022-11-15T07:53:47;30.35;;;19.38;;
29712;SDS011;16623;53.632;10.016;2022-11-15T07:56:12;30.52;;;18.88;;
29712;SDS011;16623;53.632;10.016;2022-11-15T07:58:38;32.20;;;19.05;;
29712;SDS011;16623;53.632;10.016;2022-11-15T08:01:04;35.33;;;19.20;;
29712;SDS011;16623;53.632;10.016;2022-11-15T08:03:31;35.65;;;19.00;;
29712;SDS011;16623;53.632;10.016;2022-11-15T08:05:57;27.48;;;18.23;;
29712;SDS011;16623;53.632;10.016;2022-11-15T08:08:23;31.80;;;20.40;;
29712;SDS011;16623;53.632;10.016;2022-11-15T08:10:49;31.83;;;17.98;;
29712;SDS011;16623;53.632;10.016;2022-11-15T08:13:14;33.08;;;19.02;;
29712;SDS011;16623;53.632;10.016;2022-11-15T08:15:40;28.42;;;19.80;;
29712;SDS011;16623;53.632;10.016;2022-11-15T08:18:08;25.50;;;18.15;;
29712;SDS011;16623;53.632;10.016;2022-11-15T08:20:40;36.70;;;21.02;;
29712;SDS011;16623;53.632;10.016;2022-11-15T08:23:06;26.98;;;18.17;;
29712;SDS011;16623;53.632;10.016;2022-11-15T08:25:38;31.30;;;18.80;;
29712;SDS011;16623;53.632;10.016;2022-11-15T08:28:05;32.88;;;19.08;;
29712;SDS011;16623;53.632;10.016;2022-11-15T08:30:40;32.53;;;19.25;;
29712;SDS011;16623;53.632;10.016;2022-11-15T08:33:10;31.45;;;18.75;;
29712;SDS011;16623;53.632;10.016;2022-11-15T08:35:37;30.10;;;18.77;;
29712;SDS011;16623;53.632;10.016;2022-11-15T08:38:03;32.05;;;18.83;;
29712;SDS011;16623;53.632;10.016;2022-11-15T08:40:29;30.38;;;18.45;;
29712;SDS011;16623;53.632;10.016;2022-11-15T08:42:54;38.05;;;18.63;;
29712;SDS011;16623;53.632;10.016;2022-11-15T08:45:20;28.42;;;18.17;;
29712;SDS011;16623;53.632;10.016;2022-11-15T08:47:46;27.77;;;17.50;;
29712;SDS011;16623;53.632;10.016;2022-11-15T08:50:11;30.75;;;18.58;;
29712;SDS011;16623;53.632;10.016;2022-11-15T08:52:37;28.45;;;17.27;;
29712;SDS011;16623;53.632;10.016;2022-11-15T08:55:03;28.55;;;17.20;;
29712;SDS011;16623;53.632;10.016;2022-11-15T08:57:29;30.05;;;18.42;;
29712;SDS011;16623;53.632;10.016;2022-11-15T08:59:57;25.83;;;16.40;;
29712;SDS011;16623;53.632;10.016;2022-11-15T09:02:23;28.90;;;17.83;;
29712;SDS011;16623;53.632;10.016;2022-11-15T09:04:49;28.80;;;18.52;;
29712;SDS011;16623;53.632;10.016;2022-11-15T09:07:15;28.63;;;18.58;;
29712;SDS011;16623;53.632;10.016;2022-11-15T09:09:41;29.15;;;16.85;;
29712;SDS011;16623;53.632;10.016;2022-11-15T09:12:07;26.88;;;17.13;;
29712;SDS011;16623;53.632;10.016;2022-11-15T09:14:33;29.67;;;16.92;;
29712;SDS011;16623;53.632;10.016;2022-11-15T09:16:59;28.90;;;17.67;;
29712;SDS011;16623;53.632;10.016;2022-11-15T09:19:25;31.42;;;17.33;;
29712;SDS011;16623;53.632;10.016;2022-11-15T09:21:51;30.38;;;17.38;;
29712;SDS011;16623;53.632;10.016;2022-11-15T09:24:17;30.25;;;18.05;;
29712;SDS011;16623;53.632;10.016;2022-11-15T09:26:42;29.55;;;17.00;;
29712;SDS011;16623;53.632;10.016;2022-11-15T09:29:08;27.92;;;16.55;;
29712;SDS011;16623;53.632;10.016;2022-11-15T09:31:34;31.17;;;18.15;;
29712;SDS011;16623;53.632;10.016;2022-11-15T09:34:00;25.85;;;16.00;;
29712;SDS011;16623;53.632;10.016;2022-11-15T09:36:26;31.20;;;17.25;;
29712;SDS011;16623;53.632;10.016;2022-11-15T09:38:51;30.05;;;16.77;;
29712;SDS011;16623;53.632;10.016;2022-11-15T09:46:54;24.48;;;16.25;;
29712;SDS011;16623;53.632;10.016;2022-11-15T09:49:21;24.52;;;16.25;;
29712;SDS011;16623;53.632;10.016;2022-11-15T09:51:49;25.55;;;15.50;;
29712;SDS011;16623;53.632;10.016;2022-11-15T09:54:34;28.45;;;15.80;;
29712;SDS011;16623;53.632;10.016;2022-11-15T09:57:05;25.13;;;16.40;;
29712;SDS011;16623;53.632;10.016;2022-11-15T10:02:31;26.58;;;16.25;;
29712;SDS011;16623;53.632;10.016;2022-11-15T10:05:09;26.17;;;16.63;;
29712;SDS011;16623;53.632;10.016;2022-11-15T10:07:45;26.02;;;17.27;;
29712;SDS011;16623;53.632;10.016;2022-11-15T10:10:25;24.35;;;16.58;;
29712;SDS011;16623;53.632;10.016;2022-11-15T10:13:18;27.05;;;16.50;;
29712;SDS011;16623;53.632;10.016;2022-11-15T10:15:47;28.63;;;17.67;;
29712;SDS011;16623;53.632;10.016;2022-11-15T10:18:19;27.80;;;16.02;;
29712;SDS011;16623;53.632;10.016;2022-11-15T10:21:20;28.52;;;15.18;;
29712;SDS011;16623;53.632;10.016;2022-11-15T10:23:50;22.55;;;15.88;;
29712;SDS011;16623;53.632;10.016;2022-11-15T10:26:17;26.60;;;15.48;;
29712;SDS011;16623;53.632;10.016;2022-11-15T10:28:43;28.92;;;16.67;;
29712;SDS011;16623;53.632;10.016;2022-11-15T10:31:22;24.00;;;15.95;;
29712;SDS011;16623;53.632;10.016;2022-11-15T10:34:26;24.02;;;16.25;;
29712;SDS011;16623;53.632;10.016;2022-11-15T10:36:46;25.17;;;14.75;;
29712;SDS011;16623;53.632;10.016;2022-11-15T10:39:22;24.13;;;14.48;;
29712;SDS011;16623;53.632;10.016;2022-11-15T10:41:48;21.98;;;15.02;;
29712;SDS011;16623;53.632;10.016;2022-11-15T10:46:46;30.95;;;15.60;;
29712;SDS011;16623;53.632;10.016;2022-11-15T10:49:22;24.08;;;14.38;;
29712;SDS011;16623;53.632;10.016;2022-11-15T10:51:54;28.55;;;15.50;;
29712;SDS011;16623;53.632;10.016;2022-11-15T10:54:25;26.88;;;15.93;;
29712;SDS011;16623;53.632;10.016;2022-11-15T10:57:04;24.63;;;14.77;;
29712;SDS011;16623;53.632;10.016;2022-11-15T10:59:37;28.05;;;16.67;;
29712;SDS011;16623;53.632;10.016;2022-11-15T11:02:22;25.02;;;15.65;;
29712;SDS011;16623;53.632;10.016;2022-11-15T11:04:51;24.02;;;14.85;;
29712;SDS011;16623;53.632;10.016;2022-11-15T11:07:35;24.00;;;14.27;;
29712;SDS011;16623;53.632;10.016;2022-11-15T11:10:20;27.83;;;14.77;;
29712;SDS011;16623;53.632;10.016;2022-11-15T11:12:46;18.27;;;11.55;;
29712;SDS011;16623;53.632;10.016;2022-11-15T11:15:15;24.05;;;14.23;;
29712;SDS011;16623;53.632;10.016;2022-11-15T11:23:17;27.75;;;11.95;;
29712;SDS011;16623;53.632;10.016;2022-11-15T11:26:16;25.27;;;14.23;;
29712;SDS011;16623;53.632;10.016;2022-11-15T11:31:31;22.80;;;13.35;;
29712;SDS011;16623;53.632;10.016;2022-11-15T11:34:12;23.30;;;12.15;;
29712;SDS011;16623;53.632;10.016;2022-11-15T11:36:49;24.65;;;13.05;;
29712;SDS011;16623;53.632;10.016;2022-11-15T11:39:34;18.42;;;11.77;;
29712;SDS011;16623;53.632;10.016;2022-11-15T11:45:22;24.35;;;11.63;;
29712;SDS011;16623;53.632;10.016;2022-11-15T11:50:36;20.25;;;11.93;;
29712;SDS011;16623;53.632;10.016;2022-11-15T11:55:53;16.75;;;11.07;;
29712;SDS011;16623;53.632;10.016;2022-11-15T12:06:10;21.90;;;11.52;;
29712;SDS011;16623;53.632;10.016;2022-11-15T12:09:01;24.45;;;12.65;;
29712;SDS011;16623;53.632;10.016;2022-11-15T12:11:37;25.70;;;13.15;;
29712;SDS011;16623;53.632;10.016;2022-11-15T12:17:11;15.68;;;11.48;;
29712;SDS011;16623;53.632;10.016;2022-11-15T12:19:38;19.23;;;11.00;;
29712;SDS011;16623;53.632;10.016;2022-11-15T12:22:08;20.15;;;12.77;;
29712;SDS011;16623;53.632;10.016;2022-11-15T12:24:49;19.10;;;10.20;;
29712;SDS011;16623;53.632;10.016;2022-11-15T12:27:18;18.02;;;11.40;;
29712;SDS011;16623;53.632;10.016;2022-11-15T12:29:46;18.45;;;11.20;;
29712;SDS011;16623;53.632;10.016;2022-11-15T12:32:25;17.80;;;11.52;;
29712;SDS011;16623;53.632;10.016;2022-11-15T12:34:54;19.58;;;11.05;;
29712;SDS011;16623;53.632;10.016;2022-11-15T12:40:04;18.98;;;11.65;;
29712;SDS011;16623;53.632;10.016;2022-11-15T12:43:39;14.10;;;9.82;;
29712;SDS011;16623;53.632;10.016;2022-11-15T12:45:40;17.27;;;9.77;;
29712;SDS011;16623;53.632;10.016;2022-11-15T13:06:44;15.10;;;10.50;;
29712;SDS011;16623;53.632;10.016;2022-11-15T13:17:39;16.65;;;10.85;;
29712;SDS011;16623;53.632;10.016;2022-11-15T13:22:48;20.65;;;11.45;;
29712;SDS011;16623;53.632;10.016;2022-11-15T13:28:20;17.80;;;10.93;;
29712;SDS011;16623;53.632;10.016;2022-11-15T13:30:55;16.42;;;10.75;;
29712;SDS011;16623;53.632;10.016;2022-11-15T13:33:24;16.40;;;10.60;;
29712;SDS011;16623;53.632;10.016;2022-11-15T13:35:55;15.77;;;10.07;;
29712;SDS011;16623;53.632;10.016;2022-11-15T13:40:50;17.25;;;10.95;;
29712;SDS011;16623;53.632;10.016;2022-11-15T13:43:25;13.48;;;9.80;;
29712;SDS011;16623;53.632;10.016;2022-11-15T13:48:52;15.25;;;10.02;;
29712;SDS011;16623;53.632;10.016;2022-11-15T13:54:50;16.23;;;9.35;;
29712;SDS011;16623;53.632;10.016;2022-11-15T13:57:15;13.60;;;9.20;;
29712;SDS011;16623;53.632;10.016;2022-11-15T13:59:46;15.32;;;9.63;;
29712;SDS011;16623;53.632;10.016;2022-11-15T14:02:33;13.25;;;9.93;;
29712;SDS011;16623;53.632;10.016;2022-11-15T14:05:19;15.30;;;10.15;;
29712;SDS011;16623;53.632;10.016;2022-11-15T14:07:54;13.10;;;8.80;;
29712;SDS011;16623;53.632;10.016;2022-11-15T14:10:34;15.95;;;9.68;;
29712;SDS011;16623;53.632;10.016;2022-11-15T14:13:04;12.80;;;8.80;;
29712;SDS011;16623;53.632;10.016;2022-11-15T14:15:37;15.77;;;9.13;;
29712;SDS011;16623;53.632;10.016;2022-11-15T14:18:05;13.32;;;9.20;;
29712;SDS011;16623;53.632;10.016;2022-11-15T14:20:32;12.40;;;9.35;;
29712;SDS011;16623;53.632;10.016;2022-11-15T14:23:03;17.33;;;10.05;;
29712;SDS011;16623;53.632;10.016;2022-11-15T14:25:51;18.23;;;9.32;;
29712;SDS011;16623;53.632;10.016;2022-11-15T14:30:50;18.50;;;9.65;;
29712;SDS011;16623;53.632;10.016;2022-11-15T14:33:22;13.52;;;8.88;;
29712;SDS011;16623;53.632;10.016;2022-11-15T14:35:53;16.67;;;9.55;;
29712;SDS011;16623;53.632;10.016;2022-11-15T14:38:21;13.32;;;8.82;;
29712;SDS011;16623;53.632;10.016;2022-11-15T14:40:46;14.75;;;9.55;;
29712;SDS011;16623;53.632;10.016;2022-11-15T14:43:12;15.60;;;8.95;;
29712;SDS011;16623;53.632;10.016;2022-11-15T14:45:39;14.43;;;9.10;;
29712;SDS011;16623;53.632;10.016;2022-11-15T14:48:05;17.23;;;9.77;;
29712;SDS011;16623;53.632;10.016;2022-11-15T14:50:31;19.88;;;9.30;;
29712;SDS011;16623;53.632;10.016;2022-11-15T14:52:58;16.15;;;9.32;;
29712;SDS011;16623;53.632;10.016;2022-11-15T14:55:24;20.10;;;10.98;;
29712;SDS011;16623;53.632;10.016;2022-11-15T14:57:56;17.70;;;9.70;;
29712;SDS011;16623;53.632;10.016;2022-11-15T15:00:22;16.55;;;9.70;;
29712;SDS011;16623;53.632;10.016;2022-11-15T15:02:48;15.32;;;9.45;;
29712;SDS011;16623;53.632;10.016;2022-11-15T15:05:22;15.35;;;9.80;;
29712;SDS011;16623;53.632;10.016;2022-11-15T15:07:55;15.23;;;9.30;;
29712;SDS011;16623;53.632;10.016;2022-11-15T15:10:21;14.68;;;9.02;;
29712;SDS011;16623;53.632;10.016;2022-11-15T15:12:47;14.63;;;8.98;;
29712;SDS011;16623;53.632;10.016;2022-11-15T15:15:19;12.90;;;9.02;;
29712;SDS011;16623;53.632;10.016;2022-11-15T15:17:50;14.82;;;9.98;;
29712;SDS011;16623;53.632;10.016;2022-11-15T15:20:15;14.95;;;9.85;;
29712;SDS011;16623;53.632;10.016;2022-11-15T15:22:41;13.75;;;9.35;;
29712;SDS011;16623;53.632;10.016;2022-11-15T15:25:29;14.65;;;9.38;;
29712;SDS011;16623;53.632;10.016;2022-11-15T15:27:58;15.82;;;9.30;;
29712;SDS011;16623;53.632;10.016;2022-11-15T15:30:25;18.55;;;9.40;;
29712;SDS011;16623;53.632;10.016;2022-11-15T15:32:51;13.65;;;9.50;;
29712;SDS011;16623;53.632;10.016;2022-11-15T15:35:18;15.63;;;9.65;;
29712;SDS011;16623;53.632;10.016;2022-11-15T15:37:45;14.82;;;9.32;;
29712;SDS011;16623;53.632;10.016;2022-11-15T15:40:22;12.95;;;8.77;;
29712;SDS011;16623;53.632;10.016;2022-11-15T15:42:49;15.23;;;9.77;;
29712;SDS011;16623;53.632;10.016;2022-11-15T15:45:15;13.85;;;8.85;;
29712;SDS011;16623;53.632;10.016;2022-11-15T15:47:42;13.50;;;9.70;;
29712;SDS011;16623;53.632;10.016;2022-11-15T15:50:18;13.05;;;8.73;;
29712;SDS011;16623;53.632;10.016;2022-11-15T15:52:45;17.02;;;9.00;;
29712;SDS011;16623;53.632;10.016;2022-11-15T15:55:10;16.85;;;10.43;;
29712;SDS011;16623;53.632;10.016;2022-11-15T15:57:36;20.80;;;11.02;;
29712;SDS011;16623;53.632;10.016;2022-11-15T16:00:15;17.75;;;9.55;;
29712;SDS011;16623;53.632;10.016;2022-11-15T16:02:41;17.10;;;10.38;;
29712;SDS011;16623;53.632;10.016;2022-11-15T16:05:07;18.65;;;11.90;;
29712;SDS011;16623;53.632;10.016;2022-11-15T16:07:33;16.80;;;10.13;;
29712;SDS011;16623;53.632;10.016;2022-11-15T16:09:59;16.45;;;9.75;;
29712;SDS011;16623;53.632;10.016;2022-11-15T16:12:33;15.40;;;10.55;;
29712;SDS011;16623;53.632;10.016;2022-11-15T16:14:59;15.48;;;11.30;;